Time;durP1;ratioP1;P1;durP2;ratioP2;P2;SDS_P1;SDS_P2;PMS_P1;PMS_P2;Temp;Humidity;BMP_temperature;BMP_pressure;BME280_temperature;BME280_humidity;BME280_pressure;Samples;Min_cycle;Max_cycle;Signal;HPM_P1;HPM_P2
2023/10/30 00:01:32;;;;;;;;;;;;;;;21.18;43.99;101247.79;102870;1294;72527;-81
2023/10/30 00:03:57;;;;;;;;;;;;;;;21.18;44.19;101243.84;103108;1292;75040;-81
2023/10/30 00:06:23;;;;;;;;;;;;;;;21.18;44.09;101240.27;103094;1292;62542;-81
2023/10/30 00:08:49;;;;;;;;;;;;;;;21.17;44.14;101242.09;103110;1291;63255;-80
2023/10/30 00:11:15;;;;;;;;;;;;;;;21.17;44.11;101236.56;103070;1291;62163;-80
2023/10/30 00:13:43;;;;;;;;;;;;;;;21.18;44.07;101237.05;102861;1294;62298;-79
2023/10/30 00:16:11;;;;;;;;;;;;;;;21.17;44.10;101238.14;103126;1292;63378;-80
2023/10/30 00:18:39;;;;;;;;;;;;;;;21.17;44.05;101230.25;102890;1291;62082;-82
2023/10/30 00:21:05;;;;;;;;;;;;;;;21.17;44.07;101224.53;103120;1293;72319;-81
2023/10/30 00:23:32;;;;;;;;;;;;;;;21.17;44.10;101219.18;102891;1290;75027;-80
2023/10/30 00:25:59;;;;;;;;;;;;;;;21.17;44.14;101218.82;103102;1288;62080;-82
2023/10/30 00:28:24;;;;;;;;;;;;;;;21.17;44.05;101213.09;102914;1294;62197;-81
2023/10/30 00:30:50;;;;;;;;;;;;;;;21.17;44.06;101214.02;102870;1292;63307;-81
2023/10/30 00:33:16;;;;;;;;;;;;;;;21.17;44.18;101212.39;103123;1291;62242;-81
2023/10/30 00:35:41;;;;;;;;;;;;;;;21.16;44.06;101221.73;102869;1291;62275;-80
2023/10/30 00:38:06;;;;;;;;;;;;;;;21.17;44.11;101231.15;103182;1291;62207;-82
2023/10/30 00:40:32;;;;;;;;;;;;;;;21.16;44.07;101226.02;103120;1291;62245;-82
2023/10/30 00:42:57;;;;;;;;;;;;;;;21.16;44.08;101218.15;102845;1291;62181;-80
2023/10/30 00:45:23;;;;;;;;;;;;;;;21.17;44.14;101227.97;102887;1291;62261;-80
2023/10/30 00:47:48;;;;;;;;;;;;;;;21.16;44.03;101228.16;102808;1290;62217;-83
2023/10/30 00:50:14;;;;;;;;;;;;;;;21.16;44.15;101217.08;102828;1294;62183;-81
2023/10/30 00:52:39;;;;;;;;;;;;;;;21.16;44.19;101216.36;103107;1292;62307;-81
2023/10/30 00:55:05;;;;;;;;;;;;;;;21.16;44.05;101214.24;102890;1294;62207;-80
2023/10/30 00:57:31;;;;;;;;;;;;;;;21.16;44.09;101214.92;102900;1290;62487;-80
2023/10/30 00:59:57;;;;;;;;;;;;;;;21.16;44.03;101208.85;102844;1290;62228;-80
2023/10/30 01:02:23;;;;;;;;;;;;;;;21.16;44.09;101206.19;102890;1292;62193;-81
2023/10/30 01:04:48;;;;;;;;;;;;;;;21.16;44.07;101208.14;103194;1292;63398;-80
2023/10/30 01:07:14;;;;;;;;;;;;;;;21.16;44.04;101207.45;102897;1290;72498;-81
2023/10/30 01:09:39;;;;;;;;;;;;;;;21.16;44.15;101212.11;102902;1289;62183;-81
2023/10/30 01:12:05;;;;;;;;;;;;;;;21.15;44.06;101206.58;103134;1294;63254;-81
2023/10/30 01:14:30;;;;;;;;;;;;;;;21.15;44.06;101211.22;103141;1290;62773;-80
2023/10/30 01:16:56;;;;;;;;;;;;;;;21.15;44.06;101206.60;102906;1294;62171;-81
2023/10/30 01:19:21;;;;;;;;;;;;;;;21.15;44.08;101205.52;103083;1292;71399;-80
2023/10/30 01:21:47;;;;;;;;;;;;;;;21.15;44.07;101209.28;102855;1291;63274;-81
2023/10/30 01:24:13;;;;;;;;;;;;;;;21.15;44.09;101207.84;103150;1291;62199;-81
2023/10/30 01:26:41;;;;;;;;;;;;;;;21.15;44.08;101212.14;103182;1291;62254;-80
2023/10/30 01:29:06;;;;;;;;;;;;;;;21.15;44.25;101205.72;102928;1292;63410;-80
2023/10/30 01:31:33;;;;;;;;;;;;;;;21.15;44.02;101202.15;102912;1291;63032;-81
2023/10/30 01:33:58;;;;;;;;;;;;;;;21.15;44.08;101205.38;102875;1291;63362;-80
2023/10/30 01:36:24;;;;;;;;;;;;;;;21.15;44.05;101205.70;102872;1292;62134;-81
2023/10/30 01:38:49;;;;;;;;;;;;;;;21.15;44.04;101205.20;102905;1294;62463;-80
2023/10/30 01:41:15;;;;;;;;;;;;;;;21.14;44.06;101206.83;102897;1291;62371;-80
2023/10/30 01:43:40;;;;;;;;;;;;;;;21.14;44.17;101206.82;102888;1294;62386;-80
2023/10/30 01:46:06;;;;;;;;;;;;;;;21.14;44.10;101206.64;102835;1291;62870;-82
2023/10/30 01:48:32;;;;;;;;;;;;;;;21.15;44.01;101210.92;102847;1290;63365;-80
2023/10/30 01:50:59;;;;;;;;;;;;;;;21.15;44.12;101210.20;102928;1291;62302;-80
2023/10/30 01:53:26;;;;;;;;;;;;;;;21.15;44.14;101205.20;102864;1291;62165;-80
2023/10/30 01:55:51;;;;;;;;;;;;;;;21.15;44.16;101197.85;103124;1291;63280;-81
2023/10/30 01:58:17;;;;;;;;;;;;;;;21.14;43.97;101197.71;102932;1292;63349;-81
2023/10/30 02:00:43;;;;;;;;;;;;;;;21.14;44.00;101200.92;102920;1292;62215;-80
2023/10/30 02:03:10;;;;;;;;;;;;;;;21.14;44.17;101200.20;102887;1292;62344;-81
2023/10/30 02:05:36;;;;;;;;;;;;;;;21.14;44.10;101200.23;103099;1294;62199;-80
2023/10/30 02:08:01;;;;;;;;;;;;;;;21.14;44.00;101193.98;102907;1291;62211;-80
2023/10/30 02:10:27;;;;;;;;;;;;;;;21.14;44.03;101198.60;102914;1292;63855;-80
2023/10/30 02:12:52;;;;;;;;;;;;;;;21.14;44.03;101198.98;103105;1294;63226;-80
2023/10/30 02:15:18;;;;;;;;;;;;;;;21.14;43.99;101201.14;103079;1293;72380;-82
2023/10/30 02:18:11;;;;;;;;;;;;;;;21.14;44.01;101204.17;103140;1291;62288;-80
2023/10/30 02:20:37;;;;;;;;;;;;;;;21.14;44.13;101214.02;102592;1298;62175;-80
2023/10/30 02:23:02;;;;;;;;;;;;;;;21.14;44.11;101218.84;102158;1298;62146;-81
2023/10/30 02:25:27;;;;;;;;;;;;;;;21.14;44.13;101222.45;102602;1297;62214;-81
2023/10/30 02:27:53;;;;;;;;;;;;;;;21.14;43.91;101223.33;102486;1298;62280;-81
2023/10/30 02:30:20;;;;;;;;;;;;;;;21.14;44.17;101219.36;102610;1299;62217;-82
2023/10/30 02:32:47;;;;;;;;;;;;;;;21.13;43.94;101220.48;102462;1296;62195;-82
2023/10/30 02:35:13;;;;;;;;;;;;;;;21.13;44.11;101219.42;102624;1298;62207;-81
2023/10/30 02:37:39;;;;;;;;;;;;;;;21.13;44.04;101217.79;102407;1296;62196;-80
2023/10/30 02:40:05;;;;;;;;;;;;;;;21.13;44.01;101220.67;102415;1299;62315;-80
2023/10/30 02:42:30;;;;;;;;;;;;;;;21.13;44.08;101227.14;102434;1297;62228;-81
2023/10/30 02:44:56;;;;;;;;;;;;;;;21.13;44.02;101229.48;102413;1296;63077;-80
2023/10/30 02:47:23;;;;;;;;;;;;;;;21.13;44.03;101226.43;102608;1297;62217;-81
2023/10/30 02:49:49;;;;;;;;;;;;;;;21.13;44.10;101226.77;102343;1297;72372;-80
2023/10/30 02:52:14;;;;;;;;;;;;;;;21.13;44.02;101227.35;102425;1298;63446;-80
2023/10/30 02:54:42;;;;;;;;;;;;;;;21.12;44.12;101226.45;102346;1298;63443;-81
2023/10/30 02:57:07;;;;;;;;;;;;;;;21.13;43.95;101227.34;102449;1292;63428;-82
2023/10/30 02:59:33;;;;;;;;;;;;;;;21.12;43.98;101222.36;102889;1291;62169;-81
2023/10/30 03:01:59;;;;;;;;;;;;;;;21.12;43.99;101225.39;102873;1294;62202;-80
2023/10/30 03:04:24;;;;;;;;;;;;;;;21.12;44.06;101223.27;103158;1289;63335;-80
2023/10/30 03:06:50;;;;;;;;;;;;;;;21.12;44.01;101221.82;102896;1294;62424;-81
2023/10/30 03:09:18;;;;;;;;;;;;;;;21.12;44.00;101219.88;102895;1291;63251;-81
2023/10/30 03:11:44;;;;;;;;;;;;;;;21.12;44.09;101226.32;103123;1292;73262;-80
2023/10/30 03:14:10;;;;;;;;;;;;;;;21.11;43.94;101227.25;103123;1292;62195;-81
2023/10/30 03:16:36;;;;;;;;;;;;;;;21.12;43.94;101228.46;102936;1294;62168;-81
2023/10/30 03:19:02;;;;;;;;;;;;;;;21.11;44.05;101221.70;103120;1291;62609;-80
2023/10/30 03:21:27;;;;;;;;;;;;;;;21.11;44.05;101220.80;103123;1294;62290;-82
2023/10/30 03:23:53;;;;;;;;;;;;;;;21.11;43.89;101222.79;102851;1291;62219;-79
2023/10/30 03:26:19;;;;;;;;;;;;;;;21.12;43.94;101222.05;102909;1294;63216;-82
2023/10/30 03:28:44;;;;;;;;;;;;;;;21.11;43.92;101226.36;102860;1294;62081;-82
2023/10/30 03:31:10;;;;;;;;;;;;;;;21.10;43.99;101227.83;103122;1291;62200;-80
2023/10/30 03:33:36;;;;;;;;;;;;;;;21.11;44.04;101228.69;102893;1292;62069;-80
2023/10/30 03:36:04;;;;;;;;;;;;;;;21.11;44.00;101230.33;103084;1292;62702;-81
2023/10/30 03:38:30;;;;;;;;;;;;;;;21.10;43.84;101231.59;102892;1291;62196;-81
2023/10/30 03:40:55;;;;;;;;;;;;;;;21.10;44.00;101233.73;103160;1290;62176;-80
2023/10/30 03:43:23;;;;;;;;;;;;;;;21.11;43.97;101232.82;102882;1296;62126;-80
2023/10/30 03:45:48;;;;;;;;;;;;;;;21.10;43.86;101231.23;102791;1290;62657;-80
2023/10/30 03:48:14;;;;;;;;;;;;;;;21.10;43.86;101228.39;102841;1290;63380;-80
2023/10/30 03:50:39;;;;;;;;;;;;;;;21.10;43.95;101229.45;102865;1290;62125;-82
2023/10/30 03:53:05;;;;;;;;;;;;;;;21.10;43.80;101226.41;102820;1292;62146;-80
2023/10/30 03:55:30;;;;;;;;;;;;;;;21.10;43.98;101228.73;102845;1291;62694;-80
2023/10/30 03:57:56;;;;;;;;;;;;;;;21.09;43.82;101229.13;102848;1290;63317;-80
2023/10/30 04:00:21;;;;;;;;;;;;;;;21.09;44.00;101228.23;102819;1296;62256;-80
2023/10/30 04:02:47;;;;;;;;;;;;;;;21.09;43.90;101227.71;102884;1290;62649;-82
2023/10/30 04:05:12;;;;;;;;;;;;;;;21.09;43.95;101228.23;102787;1290;63458;-80
2023/10/30 04:07:39;;;;;;;;;;;;;;;21.09;43.81;101225.91;102880;1290;62611;-82
2023/10/30 04:10:05;;;;;;;;;;;;;;;21.09;43.83;101229.14;102847;1292;62286;-81
2023/10/30 04:12:31;;;;;;;;;;;;;;;21.09;43.84;101229.52;102915;1295;62662;-80
2023/10/30 04:14:57;;;;;;;;;;;;;;;21.09;43.90;101232.36;102879;1296;62213;-80
2023/10/30 04:17:23;;;;;;;;;;;;;;;21.09;43.81;101230.96;102805;1291;62135;-80
2023/10/30 04:19:48;;;;;;;;;;;;;;;21.09;43.92;101228.08;102816;1291;62353;-81
2023/10/30 04:22:14;;;;;;;;;;;;;;;21.09;43.92;101230.94;102842;1296;62193;-82
2023/10/30 04:24:39;;;;;;;;;;;;;;;21.09;43.82;101230.25;102852;1296;62204;-83
2023/10/30 04:27:05;;;;;;;;;;;;;;;21.09;43.82;101233.99;102863;1290;62302;-80
2023/10/30 04:29:31;;;;;;;;;;;;;;;21.09;43.82;101234.91;102850;1296;62209;-81
2023/10/30 04:31:56;;;;;;;;;;;;;;;21.08;43.89;101237.09;102820;1290;63450;-80
2023/10/30 04:34:22;;;;;;;;;;;;;;;21.08;43.75;101234.93;102797;1290;62226;-80
2023/10/30 04:36:47;;;;;;;;;;;;;;;21.08;43.86;101238.38;102869;1293;62347;-81
2023/10/30 04:39:13;;;;;;;;;;;;;;;21.07;43.77;101242.33;102824;1290;62212;-79
2023/10/30 04:41:39;;;;;;;;;;;;;;;21.07;43.85;101241.64;102867;1295;63250;-81
2023/10/30 04:44:05;;;;;;;;;;;;;;;21.06;43.81;101240.24;102848;1294;62288;-80
2023/10/30 04:46:31;;;;;;;;;;;;;;;21.06;43.74;101244.75;102843;1290;62202;-81
2023/10/30 04:48:56;;;;;;;;;;;;;;;21.05;43.76;101240.86;102862;1295;62218;-80
2023/10/30 04:51:22;;;;;;;;;;;;;;;21.05;43.66;101244.80;102795;1290;62207;-80
2023/10/30 04:53:47;;;;;;;;;;;;;;;21.05;43.68;101247.30;102852;1295;62200;-81
2023/10/30 04:56:13;;;;;;;;;;;;;;;21.05;43.69;101246.42;102857;1295;62970;-80
2023/10/30 04:58:38;;;;;;;;;;;;;;;21.04;43.65;101242.89;102852;1290;62374;-80
2023/10/30 05:01:05;;;;;;;;;;;;;;;21.04;43.54;101243.08;102826;1296;63209;-80
2023/10/30 05:03:31;;;;;;;;;;;;;;;21.03;43.65;101236.33;102844;1294;63246;-81
2023/10/30 05:06:01;;;;;;;;;;;;;;;21.04;43.56;101235.42;102940;1294;62245;-80
2023/10/30 05:08:26;;;;;;;;;;;;;;;21.03;43.54;101235.48;102825;1295;75760;-81
2023/10/30 05:10:52;;;;;;;;;;;;;;;21.03;43.53;101238.52;102834;1290;62186;-81
2023/10/30 05:13:18;;;;;;;;;;;;;;;21.02;43.52;101238.55;102826;1290;62269;-80
2023/10/30 05:15:43;;;;;;;;;;;;;;;21.02;43.47;101240.38;102848;1290;62212;-80
2023/10/30 05:18:09;;;;;;;;;;;;;;;21.01;43.55;101243.81;102837;1296;62207;-80
2023/10/30 05:20:35;;;;;;;;;;;;;;;21.01;43.37;101244.89;102806;1290;63294;-80
2023/10/30 05:23:00;;;;;;;;;;;;;;;21.01;43.52;101245.98;102884;1290;62180;-80
2023/10/30 05:25:26;;;;;;;;;;;;;;;21.01;43.42;101250.98;102841;1290;62131;-80
2023/10/30 05:27:51;;;;;;;;;;;;;;;21.01;43.41;101253.52;102873;1295;62295;-80
2023/10/30 05:30:17;;;;;;;;;;;;;;;21.00;43.46;101258.02;102831;1296;62286;-80
2023/10/30 05:32:43;;;;;;;;;;;;;;;21.00;43.37;101263.59;102924;1291;62217;-80
2023/10/30 05:35:08;;;;;;;;;;;;;;;21.00;43.35;101264.30;102789;1290;62889;-80
2023/10/30 05:37:34;;;;;;;;;;;;;;;21.00;43.33;101267.72;102837;1290;63193;-80
2023/10/30 05:39:59;;;;;;;;;;;;;;;20.99;43.35;101269.89;102821;1296;62257;-79
2023/10/30 05:42:27;;;;;;;;;;;;;;;20.99;43.29;101272.75;102862;1293;62209;-81
2023/10/30 05:44:52;;;;;;;;;;;;;;;20.99;43.25;101270.61;102767;1291;62207;-79
2023/10/30 05:47:18;;;;;;;;;;;;;;;20.99;43.24;101272.77;102766;1296;62257;-80
2023/10/30 05:49:45;;;;;;;;;;;;;;;20.99;43.24;101272.42;102868;1296;63329;-82
2023/10/30 05:52:11;;;;;;;;;;;;;;;20.99;43.23;101273.86;102860;1295;72315;-80
2023/10/30 05:54:36;;;;;;;;;;;;;;;20.99;43.19;101279.92;102826;1296;62632;-82
2023/10/30 05:57:02;;;;;;;;;;;;;;;20.98;43.18;101277.47;102902;1295;62288;-81
2023/10/30 05:59:27;;;;;;;;;;;;;;;20.99;43.12;101277.43;102890;1290;62158;-81
2023/10/30 06:01:53;;;;;;;;;;;;;;;20.98;43.08;101284.08;102948;1296;62170;-81
2023/10/30 06:04:18;;;;;;;;;;;;;;;20.98;42.97;101286.59;102900;1293;72272;-81
2023/10/30 06:06:44;;;;;;;;;;;;;;;20.98;43.06;101291.25;102902;1296;62304;-80
2023/10/30 06:09:09;;;;;;;;;;;;;;;20.98;43.03;101292.67;102813;1290;62280;-81
2023/10/30 06:11:35;;;;;;;;;;;;;;;20.98;43.00;101295.88;102994;1296;63249;-81
2023/10/30 06:14:00;;;;;;;;;;;;;;;20.99;42.98;101295.50;103255;1295;62213;-79
2023/10/30 06:16:26;;;;;;;;;;;;;;;20.99;42.96;101294.25;103050;1291;70653;-81
2023/10/30 06:18:52;;;;;;;;;;;;;;;21.00;42.89;101294.39;103142;1294;62450;-81
2023/10/30 06:21:18;;;;;;;;;;;;;;;21.00;42.88;101295.44;103141;1291;62671;-82
2023/10/30 06:23:44;;;;;;;;;;;;;;;21.00;42.91;101299.73;103378;1290;62472;-80
2023/10/30 06:26:10;;;;;;;;;;;;;;;21.00;43.00;101298.81;103262;1290;62081;-79
2023/10/30 06:28:37;;;;;;;;;;;;;;;21.01;42.96;101302.34;103321;1295;62199;-80
2023/10/30 06:31:21;;;;;;;;;;;;;;;21.01;42.93;101306.98;103206;1290;62212;-80
2023/10/30 06:33:46;;;;;;;;;;;;;;;21.02;42.95;101304.08;103196;1295;62093;-81
2023/10/30 06:36:13;;;;;;;;;;;;;;;21.02;42.96;101306.21;103290;1296;63487;-80
2023/10/30 06:38:38;;;;;;;;;;;;;;;21.03;42.96;101309.39;103270;1290;62156;-80
2023/10/30 06:41:04;;;;;;;;;;;;;;;21.03;42.88;101310.63;103058;1293;62163;-80
2023/10/30 06:43:32;;;;;;;;;;;;;;;21.03;42.81;101309.53;103127;1296;63234;-81
2023/10/30 06:46:04;;;;;;;;;;;;;;;21.04;42.79;101310.52;103044;1293;62081;-80
2023/10/30 06:48:29;;;;;;;;;;;;;;;21.04;42.81;101311.97;103034;1289;75077;-81
2023/10/30 06:50:55;;;;;;;;;;;;;;;21.03;42.88;101310.61;102987;1291;62199;-80
2023/10/30 06:53:20;;;;;;;;;;;;;;;21.03;42.73;101310.09;103133;1291;62146;-81
2023/10/30 06:55:46;;;;;;;;;;;;;;;21.03;42.78;101310.29;103071;1295;63522;-81
2023/10/30 06:58:11;;;;;;;;;;;;;;;21.02;42.75;101308.03;103062;1290;62580;-80
2023/10/30 07:00:37;;;;;;;;;;;;;;;21.01;42.67;101307.02;103043;1293;75907;-80
2023/10/30 07:03:02;;;;;;;;;;;;;;;20.99;42.66;101307.98;103184;1290;62180;-80
2023/10/30 07:05:28;;;;;;;;;;;;;;;20.98;42.70;101312.17;103060;1290;62222;-80
2023/10/30 07:07:54;;;;;;;;;;;;;;;20.99;42.74;101313.40;103111;1296;62203;-81
2023/10/30 07:10:19;;;;;;;;;;;;;;;20.98;42.70;101303.95;102998;1296;62222;-79
2023/10/30 07:12:44;;;;;;;;;;;;;;;20.99;42.73;101297.83;103076;1293;75112;-80
2023/10/30 07:15:10;;;;;;;;;;;;;;;20.99;42.65;101302.10;103087;1293;62215;-81
2023/10/30 07:17:35;;;;;;;;;;;;;;;20.99;42.69;101300.48;103275;1296;62231;-81
2023/10/30 07:20:02;;;;;;;;;;;;;;;21.00;42.71;101303.48;103077;1290;62206;-80
2023/10/30 07:22:28;;;;;;;;;;;;;;;21.00;42.70;101301.66;103278;1295;62300;-80
2023/10/30 07:24:56;;;;;;;;;;;;;;;21.01;42.62;101297.72;103422;1290;62675;-80
2023/10/30 07:27:22;;;;;;;;;;;;;;;21.01;42.60;101296.63;103319;1295;62206;-80
2023/10/30 07:29:47;;;;;;;;;;;;;;;21.02;42.68;101297.27;103230;1290;62213;-80
2023/10/30 07:32:13;;;;;;;;;;;;;;;21.03;42.60;101297.04;103372;1293;62293;-80
2023/10/30 07:34:40;;;;;;;;;;;;;;;21.03;42.69;101295.23;103636;1290;75326;-81
2023/10/30 07:37:05;;;;;;;;;;;;;;;21.03;42.65;101292.35;103409;1295;62118;-80
2023/10/30 07:39:30;;;;;;;;;;;;;;;21.04;42.71;101289.79;103467;1294;62296;-80
2023/10/30 07:41:57;;;;;;;;;;;;;;;21.05;42.63;101285.11;103698;1289;62180;-80
2023/10/30 07:44:22;;;;;;;;;;;;;;;21.05;42.61;101280.41;103539;1290;62196;-80
2023/10/30 07:46:48;;;;;;;;;;;;;;;21.06;42.70;101280.21;103478;1290;62086;-80
2023/10/30 07:49:13;;;;;;;;;;;;;;;21.07;42.57;101277.46;103591;1290;62193;-81
2023/10/30 07:51:38;;;;;;;;;;;;;;;21.07;42.67;101276.92;103418;1290;62224;-80
2023/10/30 07:54:04;;;;;;;;;;;;;;;21.07;42.67;101276.53;103514;1295;62208;-80
2023/10/30 07:56:31;;;;;;;;;;;;;;;21.07;42.71;101276.52;103316;1297;62193;-81
2023/10/30 07:58:57;;;;;;;;;;;;;;;21.08;42.59;101276.47;103349;1292;62280;-80
2023/10/30 08:01:22;;;;;;;;;;;;;;;21.09;42.55;101275.01;103494;1290;62289;-82
2023/10/30 08:03:48;;;;;;;;;;;;;;;21.09;42.57;101275.17;103365;1290;62219;-83
2023/10/30 08:06:13;;;;;;;;;;;;;;;21.09;42.66;101273.94;103226;1290;73352;-82
2023/10/30 08:08:39;;;;;;;;;;;;;;;21.08;42.56;101273.98;103185;1293;63201;-81
2023/10/30 08:11:04;;;;;;;;;;;;;;;21.09;42.59;101269.45;103434;1289;62232;-79
2023/10/30 08:13:31;;;;;;;;;;;;;;;21.09;42.62;101269.77;103320;1290;62206;-80
2023/10/30 08:15:56;;;;;;;;;;;;;;;21.10;42.63;101270.98;103363;1290;62193;-80
2023/10/30 08:18:23;;;;;;;;;;;;;;;21.10;42.72;101271.66;103382;1293;63355;-80
2023/10/30 08:20:50;;;;;;;;;;;;;;;21.11;42.66;101270.19;103444;1296;62545;-80
2023/10/30 08:23:16;;;;;;;;;;;;;;;21.12;42.56;101268.02;103804;1290;62124;-81
2023/10/30 08:25:41;;;;;;;;;;;;;;;21.13;42.61;101272.98;103652;1291;62279;-80
2023/10/30 08:28:07;;;;;;;;;;;;;;;21.13;42.67;101271.53;103639;1290;62177;-81
2023/10/30 08:30:32;;;;;;;;;;;;;;;21.13;42.55;101272.59;103796;1291;63239;-81
2023/10/30 08:32:58;;;;;;;;;;;;;;;21.14;42.55;101274.52;103697;1295;62201;-80
2023/10/30 08:35:24;;;;;;;;;;;;;;;21.14;42.56;101273.59;103300;1292;63396;-81
2023/10/30 08:37:49;;;;;;;;;;;;;;;21.15;42.54;101274.45;103392;1295;62116;-80
2023/10/30 08:40:15;;;;;;;;;;;;;;;21.15;42.52;101274.61;103633;1290;62213;-81
2023/10/30 08:42:41;;;;;;;;;;;;;;;21.15;42.43;101272.81;103483;1291;62223;-80
2023/10/30 08:45:07;;;;;;;;;;;;;;;21.16;42.50;101272.23;103599;1293;62225;-80
2023/10/30 08:47:33;;;;;;;;;;;;;;;21.16;42.49;101270.06;103759;1290;62222;-79
2023/10/30 08:49:58;;;;;;;;;;;;;;;21.16;42.56;101266.64;103305;1291;62229;-79
2023/10/30 08:52:24;;;;;;;;;;;;;;;21.17;42.44;101266.79;103266;1295;72519;-80
2023/10/30 08:54:50;;;;;;;;;;;;;;;21.17;42.39;101267.33;103363;1296;62207;-81
2023/10/30 08:57:19;;;;;;;;;;;;;;;21.17;42.40;101264.08;103382;1293;62290;-80
2023/10/30 08:59:46;;;;;;;;;;;;;;;21.17;42.37;101262.64;103420;1291;62177;-81
2023/10/30 09:02:11;;;;;;;;;;;;;;;21.18;42.36;101264.39;103232;1295;63233;-80
2023/10/30 09:04:37;;;;;;;;;;;;;;;21.18;42.25;101266.15;103139;1295;62179;-80
2023/10/30 09:07:03;;;;;;;;;;;;;;;21.19;42.35;101264.36;103281;1293;62283;-80
2023/10/30 09:09:28;;;;;;;;;;;;;;;21.18;42.15;101259.36;103153;1295;62221;-81
2023/10/30 09:11:54;;;;;;;;;;;;;;;21.19;42.35;101260.75;103045;1295;62221;-79
2023/10/30 09:14:19;;;;;;;;;;;;;;;21.19;42.25;101258.80;103598;1297;62583;-79
2023/10/30 09:16:45;;;;;;;;;;;;;;;21.19;42.24;101259.71;103206;1290;63361;-79
2023/10/30 09:19:10;;;;;;;;;;;;;;;21.19;42.28;101258.40;103224;1297;63390;-82
2023/10/30 09:21:36;;;;;;;;;;;;;;;21.19;42.26;101257.70;103277;1293;61949;-81
2023/10/30 09:24:02;;;;;;;;;;;;;;;21.19;42.11;101255.55;103462;1290;62296;-81
2023/10/30 09:26:27;;;;;;;;;;;;;;;21.19;42.24;101253.40;103413;1295;72288;-81
2023/10/30 09:28:54;;;;;;;;;;;;;;;21.20;42.14;101252.11;103501;1295;62090;-80
2023/10/30 09:31:20;;;;;;;;;;;;;;;21.20;42.20;101251.36;103453;1292;62648;-81
2023/10/30 09:33:48;;;;;;;;;;;;;;;21.20;42.19;101250.63;103313;1293;62100;-81
2023/10/30 09:36:13;;;;;;;;;;;;;;;21.21;42.04;101246.85;103140;1292;62166;-80
2023/10/30 09:38:41;;;;;;;;;;;;;;;21.21;42.20;101247.56;103202;1289;63450;-79
2023/10/30 09:41:07;;;;;;;;;;;;;;;21.21;42.05;101243.09;103321;1292;62075;-79
2023/10/30 09:43:37;;;;;;;;;;;;;;;21.21;42.24;101237.89;103349;1295;62254;-80
2023/10/30 09:46:06;;;;;;;;;;;;;;;21.21;42.19;101233.95;104130;1292;72564;-79
2023/10/30 09:48:32;;;;;;;;;;;;;;;21.22;42.14;101231.75;103536;1292;75070;-80
2023/10/30 09:50:58;;;;;;;;;;;;;;;21.22;42.18;101225.27;103417;1290;62409;-80
2023/10/30 09:53:27;;;;;;;;;;;;;;;21.22;42.15;101225.27;103441;1290;62111;-79
2023/10/30 09:55:54;;;;;;;;;;;;;;;21.22;42.14;101221.69;103237;1292;73313;-81
2023/10/30 09:58:23;;;;;;;;;;;;;;;21.23;42.05;101217.89;103269;1290;74172;-80
2023/10/30 10:00:49;;;;;;;;;;;;;;;21.23;42.16;101213.77;103720;1290;62136;-81
2023/10/30 10:03:14;;;;;;;;;;;;;;;21.24;42.16;101211.05;103569;1295;62190;-80
2023/10/30 10:05:40;;;;;;;;;;;;;;;21.23;42.11;101200.88;103419;1290;62209;-79
2023/10/30 10:08:05;;;;;;;;;;;;;;;21.23;42.18;101203.89;103604;1290;62125;-80
2023/10/30 10:10:50;;;;;;;;;;;;;;;21.24;42.18;101202.81;103477;1290;62221;-80
2023/10/30 10:13:16;;;;;;;;;;;;;;;21.23;42.19;101196.20;103378;1294;62133;-79
2023/10/30 10:15:41;;;;;;;;;;;;;;;21.24;42.25;101196.19;103245;1295;62249;-80
2023/10/30 10:18:07;;;;;;;;;;;;;;;21.23;42.18;101191.54;103289;1289;62155;-81
2023/10/30 10:20:33;;;;;;;;;;;;;;;21.24;42.31;101192.07;103255;1293;62590;-80
2023/10/30 10:22:59;;;;;;;;;;;;;;;21.23;42.18;101188.15;103370;1295;63408;-80
2023/10/30 10:25:24;;;;;;;;;;;;;;;21.23;42.29;101189.75;103470;1290;62160;-81
2023/10/30 10:27:50;;;;;;;;;;;;;;;21.24;42.23;101187.23;103670;1294;62247;-81
2023/10/30 10:30:18;;;;;;;;;;;;;;;21.24;42.22;101184.33;103468;1293;62081;-82
2023/10/30 10:32:43;;;;;;;;;;;;;;;21.26;42.24;101179.58;103789;1294;75257;-81
2023/10/30 10:35:10;;;;;;;;;;;;;;;21.27;42.25;101174.48;103822;1289;62248;-81
2023/10/30 10:37:36;;;;;;;;;;;;;;;21.28;42.27;101174.64;103864;1290;62077;-81
2023/10/30 10:40:05;;;;;;;;;;;;;;;21.28;42.39;101172.84;103781;1293;62153;-79
2023/10/30 10:42:30;;;;;;;;;;;;;;;21.28;42.34;101172.84;103989;1290;75068;-79
2023/10/30 10:44:56;;;;;;;;;;;;;;;21.28;42.52;101167.48;104050;1295;62209;-79
2023/10/30 10:47:22;;;;;;;;;;;;;;;21.28;42.53;101163.86;104235;1293;62030;-79
2023/10/30 10:49:48;;;;;;;;;;;;;;;21.28;42.55;101163.13;103945;1290;59955;-79
2023/10/30 10:52:14;;;;;;;;;;;;;;;21.29;42.59;101161.65;104124;1289;62221;-80
2023/10/30 10:54:43;;;;;;;;;;;;;;;21.29;42.52;101161.67;103926;1289;62231;-80
2023/10/30 10:57:09;;;;;;;;;;;;;;;21.30;42.56;101158.19;104064;1295;62215;-79
2023/10/30 10:59:34;;;;;;;;;;;;;;;21.29;42.53;101161.80;103999;1289;62149;-80
2023/10/30 11:02:00;;;;;;;;;;;;;;;21.30;42.70;101161.41;104155;1289;62120;-79
2023/10/30 11:04:27;;;;;;;;;;;;;;;21.30;42.70;101156.75;104137;1291;62101;-79
2023/10/30 11:06:57;;;;;;;;;;;;;;;21.30;42.73;101153.52;104106;1294;60267;-80
2023/10/30 11:09:25;;;;;;;;;;;;;;;21.30;42.73;101149.92;104195;1294;62035;-79
2023/10/30 11:11:50;;;;;;;;;;;;;;;21.30;42.68;101147.95;105730;1289;72394;-79
2023/10/30 11:14:18;;;;;;;;;;;;;;;21.31;42.74;101139.52;104067;1290;63821;-79
2023/10/30 11:16:48;;;;;;;;;;;;;;;21.31;42.76;101135.75;104127;1290;62095;-79
2023/10/30 11:19:18;;;;;;;;;;;;;;;21.31;42.78;101131.07;104119;1290;62107;-80
2023/10/30 11:21:43;;;;;;;;;;;;;;;21.32;42.78;101121.92;104305;1289;72495;-80
2023/10/30 11:24:09;;;;;;;;;;;;;;;21.32;42.76;101126.90;104192;1295;62504;-79
2023/10/30 11:26:36;;;;;;;;;;;;;;;21.33;42.74;101117.02;104094;1289;62237;-79
2023/10/30 11:29:09;;;;;;;;;;;;;;;21.33;42.76;101113.96;106078;1290;59265;-79
2023/10/30 11:34:43;;;;;;;;;;;;;;;21.33;42.94;101107.50;103619;1296;75210;-79
2023/10/30 11:37:11;;;;;;;;;;;;;;;21.33;42.83;101101.74;103620;1295;62094;-79
2023/10/30 11:39:37;;;;;;;;;;;;;;;21.34;42.81;101098.33;103583;1296;62283;-79
2023/10/30 11:42:04;;;;;;;;;;;;;;;21.33;42.85;101096.02;103560;1296;72615;-79
2023/10/30 11:44:31;;;;;;;;;;;;;;;21.34;42.78;101099.40;103953;1295;75268;-79
2023/10/30 11:46:57;;;;;;;;;;;;;;;21.34;42.90;101095.80;103591;1299;62242;-79
2023/10/30 11:49:26;;;;;;;;;;;;;;;21.34;42.83;101093.30;103518;1298;62142;-79
2023/10/30 11:51:52;;;;;;;;;;;;;;;21.34;42.94;101091.17;103608;1296;72585;-79
2023/10/30 11:54:30;;;;;;;;;;;;;;;21.33;42.92;101090.46;103830;1299;62130;-80
2023/10/30 11:56:55;;;;;;;;;;;;;;;21.33;42.73;101085.97;103738;1296;62353;-80
2023/10/30 11:59:21;;;;;;;;;;;;;;;21.34;42.98;101081.48;103481;1296;62220;-80
2023/10/30 12:01:46;;;;;;;;;;;;;;;21.34;42.90;101079.88;103649;1296;74163;-79
2023/10/30 12:04:19;;;;;;;;;;;;;;;21.33;43.00;101075.77;103645;1295;62173;-79
2023/10/30 12:06:45;;;;;;;;;;;;;;;21.34;42.84;101071.98;105427;1296;60806;-80
2023/10/30 12:09:11;;;;;;;;;;;;;;;21.34;42.91;101075.54;105580;1296;59452;-79
2023/10/30 12:11:36;;;;;;;;;;;;;;;21.35;43.01;101073.16;105375;1290;60213;-79
2023/10/30 12:14:04;;;;;;;;;;;;;;;21.36;43.01;101066.86;106018;1290;60330;-79
2023/10/30 12:16:30;;;;;;;;;;;;;;;21.36;43.07;101063.41;106065;1289;60031;-79
2023/10/30 12:18:57;;;;;;;;;;;;;;;21.38;43.14;101064.04;105293;1290;60304;-79
2023/10/30 12:21:22;;;;;;;;;;;;;;;21.38;43.06;101062.74;103503;1293;62598;-79
2023/10/30 12:23:57;;;;;;;;;;;;;;;21.39;43.10;101061.65;103515;1290;62204;-79
2023/10/30 12:26:23;;;;;;;;;;;;;;;21.38;43.04;101059.00;103600;1293;62699;-79